sensor_id;sensor_type;location;lat;lon;timestamp;temperature;humidity
13673;DHT22;6909;52.202;9.876;2023-03-26T00:00:04;7.80;99.90
13673;DHT22;6909;52.202;9.876;2023-03-26T00:02:35;7.80;1.00
13673;DHT22;6909;52.202;9.876;2023-03-26T00:05:05;7.80;1.00
13673;DHT22;6909;52.202;9.876;2023-03-26T00:07:31;7.80;1.00
13673;DHT22;6909;52.202;9.876;2023-03-26T00:09:58;7.80;1.00
13673;DHT22;6909;52.202;9.876;2023-03-26T00:12:25;7.80;1.00
13673;DHT22;6909;52.202;9.876;2023-03-26T00:14:51;7.80;1.00
13673;DHT22;6909;52.202;9.876;2023-03-26T00:17:18;7.80;1.00
13673;DHT22;6909;52.202;9.876;2023-03-26T00:19:47;7.80;1.00
13673;DHT22;6909;52.202;9.876;2023-03-26T00:22:13;7.80;1.00
13673;DHT22;6909;52.202;9.876;2023-03-26T00:24:41;7.70;1.00
13673;DHT22;6909;52.202;9.876;2023-03-26T00:27:10;7.70;99.90
13673;DHT22;6909;52.202;9.876;2023-03-26T00:29:37;7.70;1.00
13673;DHT22;6909;52.202;9.876;2023-03-26T00:32:04;7.70;1.00
13673;DHT22;6909;52.202;9.876;2023-03-26T00:34:31;7.60;99.90
13673;DHT22;6909;52.202;9.876;2023-03-26T00:37:02;7.60;99.90
13673;DHT22;6909;52.202;9.876;2023-03-26T00:39:29;7.60;99.90
13673;DHT22;6909;52.202;9.876;2023-03-26T00:42:00;7.60;99.90
13673;DHT22;6909;52.202;9.876;2023-03-26T00:44:35;7.60;99.90
13673;DHT22;6909;52.202;9.876;2023-03-26T00:47:02;7.60;99.90
13673;DHT22;6909;52.202;9.876;2023-03-26T00:49:29;7.70;1.00
13673;DHT22;6909;52.202;9.876;2023-03-26T00:51:56;7.70;1.00
13673;DHT22;6909;52.202;9.876;2023-03-26T00:54:24;7.70;1.00
13673;DHT22;6909;52.202;9.876;2023-03-26T00:56:51;7.70;1.00
13673;DHT22;6909;52.202;9.876;2023-03-26T00:59:20;7.70;1.00
13673;DHT22;6909;52.202;9.876;2023-03-26T01:01:47;7.70;1.00
13673;DHT22;6909;52.202;9.876;2023-03-26T01:04:23;7.70;99.90
13673;DHT22;6909;52.202;9.876;2023-03-26T01:06:53;7.80;1.00
13673;DHT22;6909;52.202;9.876;2023-03-26T01:09:24;7.80;1.00
13673;DHT22;6909;52.202;9.876;2023-03-26T01:11:52;7.80;1.00
13673;DHT22;6909;52.202;9.876;2023-03-26T01:14:21;7.90;99.90
13673;DHT22;6909;52.202;9.876;2023-03-26T01:16:51;7.90;99.90
13673;DHT22;6909;52.202;9.876;2023-03-26T01:19:23;7.90;1.00
13673;DHT22;6909;52.202;9.876;2023-03-26T01:21:51;7.90;1.00
13673;DHT22;6909;52.202;9.876;2023-03-26T01:24:19;7.90;1.00
13673;DHT22;6909;52.202;9.876;2023-03-26T01:27:02;7.80;1.00
13673;DHT22;6909;52.202;9.876;2023-03-26T01:29:34;7.80;1.00
13673;DHT22;6909;52.202;9.876;2023-03-26T01:32:17;7.80;1.00
13673;DHT22;6909;52.202;9.876;2023-03-26T01:34:55;7.70;1.00
13673;DHT22;6909;52.202;9.876;2023-03-26T01:37:30;7.70;1.00
13673;DHT22;6909;52.202;9.876;2023-03-26T01:40:04;7.70;99.90
13673;DHT22;6909;52.202;9.876;2023-03-26T01:42:36;7.70;99.90
13673;DHT22;6909;52.202;9.876;2023-03-26T01:45:09;7.60;1.00
13673;DHT22;6909;52.202;9.876;2023-03-26T01:47:37;7.60;99.90
13673;DHT22;6909;52.202;9.876;2023-03-26T01:50:06;7.60;99.90
13673;DHT22;6909;52.202;9.876;2023-03-26T01:52:33;7.60;99.90
13673;DHT22;6909;52.202;9.876;2023-03-26T01:55:01;7.50;99.90
13673;DHT22;6909;52.202;9.876;2023-03-26T01:57:35;7.50;99.90
13673;DHT22;6909;52.202;9.876;2023-03-26T02:00:17;7.40;99.90
13673;DHT22;6909;52.202;9.876;2023-03-26T02:02:54;7.30;56.20
13673;DHT22;6909;52.202;9.876;2023-03-26T02:05:31;7.30;35.70
13673;DHT22;6909;52.202;9.876;2023-03-26T02:08:02;7.10;99.90
13673;DHT22;6909;52.202;9.876;2023-03-26T02:10:39;7.10;91.40
13673;DHT22;6909;52.202;9.876;2023-03-26T02:13:07;7.20;1.00
13673;DHT22;6909;52.202;9.876;2023-03-26T02:15:34;7.20;1.00
13673;DHT22;6909;52.202;9.876;2023-03-26T02:18:00;7.20;1.00
13673;DHT22;6909;52.202;9.876;2023-03-26T02:20:28;7.20;1.00
13673;DHT22;6909;52.202;9.876;2023-03-26T02:22:58;7.20;1.00
13673;DHT22;6909;52.202;9.876;2023-03-26T02:25:25;7.20;1.00
13673;DHT22;6909;52.202;9.876;2023-03-26T02:27:53;7.10;1.00
13673;DHT22;6909;52.202;9.876;2023-03-26T02:30:22;7.20;99.90
13673;DHT22;6909;52.202;9.876;2023-03-26T02:32:54;7.20;99.90
13673;DHT22;6909;52.202;9.876;2023-03-26T02:35:23;7.10;99.90
13673;DHT22;6909;52.202;9.876;2023-03-26T02:37:50;7.10;99.90
13673;DHT22;6909;52.202;9.876;2023-03-26T02:40:17;7.10;99.90
13673;DHT22;6909;52.202;9.876;2023-03-26T02:42:45;7.10;99.90
13673;DHT22;6909;52.202;9.876;2023-03-26T02:45:14;7.10;99.90
13673;DHT22;6909;52.202;9.876;2023-03-26T02:47:40;7.10;99.90
13673;DHT22;6909;52.202;9.876;2023-03-26T02:50:08;7.20;99.90
13673;DHT22;6909;52.202;9.876;2023-03-26T02:52:36;7.20;99.90
13673;DHT22;6909;52.202;9.876;2023-03-26T02:55:06;7.20;99.90
13673;DHT22;6909;52.202;9.876;2023-03-26T02:57:33;7.20;99.90
13673;DHT22;6909;52.202;9.876;2023-03-26T03:00:00;7.20;99.90
13673;DHT22;6909;52.202;9.876;2023-03-26T03:02:38;7.30;93.50
13673;DHT22;6909;52.202;9.876;2023-03-26T03:05:06;7.30;99.90
13673;DHT22;6909;52.202;9.876;2023-03-26T03:07:32;7.20;99.90
13673;DHT22;6909;52.202;9.876;2023-03-26T03:10:02;7.30;99.90
13673;DHT22;6909;52.202;9.876;2023-03-26T03:12:28;7.20;99.90
13673;DHT22;6909;52.202;9.876;2023-03-26T03:14:55;7.30;99.90
13673;DHT22;6909;52.202;9.876;2023-03-26T03:17:22;7.20;99.90
13673;DHT22;6909;52.202;9.876;2023-03-26T03:19:50;7.20;99.90
13673;DHT22;6909;52.202;9.876;2023-03-26T03:22:16;7.10;1.00
13673;DHT22;6909;52.202;9.876;2023-03-26T03:24:44;7.10;1.00
13673;DHT22;6909;52.202;9.876;2023-03-26T03:27:11;7.00;1.00
13673;DHT22;6909;52.202;9.876;2023-03-26T03:29:38;6.90;1.00
13673;DHT22;6909;52.202;9.876;2023-03-26T03:32:05;6.90;1.00
13673;DHT22;6909;52.202;9.876;2023-03-26T03:34:32;6.90;1.00
13673;DHT22;6909;52.202;9.876;2023-03-26T03:37:00;7.00;31.70
13673;DHT22;6909;52.202;9.876;2023-03-26T03:39:26;7.00;1.00
13673;DHT22;6909;52.202;9.876;2023-03-26T03:41:53;7.10;1.00
13673;DHT22;6909;52.202;9.876;2023-03-26T03:44:20;7.10;1.00
13673;DHT22;6909;52.202;9.876;2023-03-26T03:46:46;7.10;1.00
13673;DHT22;6909;52.202;9.876;2023-03-26T03:49:18;7.20;1.00
13673;DHT22;6909;52.202;9.876;2023-03-26T03:51:45;7.10;1.00
13673;DHT22;6909;52.202;9.876;2023-03-26T03:54:13;7.20;1.00
13673;DHT22;6909;52.202;9.876;2023-03-26T03:56:39;7.10;1.00
13673;DHT22;6909;52.202;9.876;2023-03-26T03:59:06;7.20;1.00
13673;DHT22;6909;52.202;9.876;2023-03-26T04:01:39;7.20;1.00
13673;DHT22;6909;52.202;9.876;2023-03-26T04:04:07;7.20;1.00
13673;DHT22;6909;52.202;9.876;2023-03-26T04:06:37;7.20;1.00
13673;DHT22;6909;52.202;9.876;2023-03-26T04:09:04;7.20;1.00
13673;DHT22;6909;52.202;9.876;2023-03-26T04:11:32;7.30;1.00
13673;DHT22;6909;52.202;9.876;2023-03-26T04:13:58;7.20;1.00
13673;DHT22;6909;52.202;9.876;2023-03-26T04:16:25;7.20;1.00
13673;DHT22;6909;52.202;9.876;2023-03-26T04:18:51;7.20;1.00
13673;DHT22;6909;52.202;9.876;2023-03-26T04:21:18;7.20;1.00
13673;DHT22;6909;52.202;9.876;2023-03-26T04:23:45;7.30;1.00
13673;DHT22;6909;52.202;9.876;2023-03-26T04:26:15;7.30;1.00
13673;DHT22;6909;52.202;9.876;2023-03-26T04:28:47;7.30;1.00
13673;DHT22;6909;52.202;9.876;2023-03-26T04:31:19;7.30;1.00
13673;DHT22;6909;52.202;9.876;2023-03-26T04:33:50;7.20;1.00
13673;DHT22;6909;52.202;9.876;2023-03-26T04:36:20;7.30;1.00
13673;DHT22;6909;52.202;9.876;2023-03-26T04:38:47;7.30;1.00
13673;DHT22;6909;52.202;9.876;2023-03-26T04:41:16;7.30;1.00
13673;DHT22;6909;52.202;9.876;2023-03-26T04:43:44;7.20;1.00
13673;DHT22;6909;52.202;9.876;2023-03-26T04:46:14;7.20;1.00
13673;DHT22;6909;52.202;9.876;2023-03-26T04:48:42;7.20;1.00
13673;DHT22;6909;52.202;9.876;2023-03-26T04:51:11;7.10;1.00
13673;DHT22;6909;52.202;9.876;2023-03-26T04:53:42;7.00;1.00
13673;DHT22;6909;52.202;9.876;2023-03-26T04:56:16;7.00;99.90
13673;DHT22;6909;52.202;9.876;2023-03-26T04:58:51;6.90;99.90
13673;DHT22;6909;52.202;9.876;2023-03-26T05:01:21;6.90;1.00
13673;DHT22;6909;52.202;9.876;2023-03-26T05:03:48;6.90;1.00
13673;DHT22;6909;52.202;9.876;2023-03-26T05:06:16;6.90;1.00
13673;DHT22;6909;52.202;9.876;2023-03-26T05:08:43;7.00;1.00
13673;DHT22;6909;52.202;9.876;2023-03-26T05:11:09;6.90;1.00
13673;DHT22;6909;52.202;9.876;2023-03-26T05:13:36;7.00;1.00
13673;DHT22;6909;52.202;9.876;2023-03-26T05:16:05;7.00;1.00
13673;DHT22;6909;52.202;9.876;2023-03-26T05:18:32;6.90;1.00
13673;DHT22;6909;52.202;9.876;2023-03-26T05:20:58;6.90;1.00
13673;DHT22;6909;52.202;9.876;2023-03-26T05:23:25;6.90;1.00
13673;DHT22;6909;52.202;9.876;2023-03-26T05:25:52;6.90;1.00
13673;DHT22;6909;52.202;9.876;2023-03-26T05:28:18;6.90;1.00
13673;DHT22;6909;52.202;9.876;2023-03-26T05:30:48;6.90;1.00
13673;DHT22;6909;52.202;9.876;2023-03-26T05:33:18;6.90;47.40
13673;DHT22;6909;52.202;9.876;2023-03-26T05:35:45;7.00;99.90
13673;DHT22;6909;52.202;9.876;2023-03-26T05:38:13;7.10;1.00
13673;DHT22;6909;52.202;9.876;2023-03-26T05:40:40;7.00;99.90
13673;DHT22;6909;52.202;9.876;2023-03-26T05:43:07;7.00;99.90
13673;DHT22;6909;52.202;9.876;2023-03-26T05:45:33;7.10;99.90
13673;DHT22;6909;52.202;9.876;2023-03-26T05:48:00;7.10;1.00
13673;DHT22;6909;52.202;9.876;2023-03-26T05:50:28;7.10;1.00
13673;DHT22;6909;52.202;9.876;2023-03-26T05:52:55;7.10;1.00
13673;DHT22;6909;52.202;9.876;2023-03-26T05:55:21;7.10;1.00
13673;DHT22;6909;52.202;9.876;2023-03-26T05:57:48;7.20;1.00
13673;DHT22;6909;52.202;9.876;2023-03-26T06:00:15;7.20;1.00
13673;DHT22;6909;52.202;9.876;2023-03-26T06:02:42;7.20;1.00
13673;DHT22;6909;52.202;9.876;2023-03-26T06:05:11;7.40;1.00
13673;DHT22;6909;52.202;9.876;2023-03-26T06:07:39;7.30;1.00
13673;DHT22;6909;52.202;9.876;2023-03-26T06:10:09;7.30;1.00
13673;DHT22;6909;52.202;9.876;2023-03-26T06:12:36;7.30;1.00
13673;DHT22;6909;52.202;9.876;2023-03-26T06:15:03;7.40;1.00
13673;DHT22;6909;52.202;9.876;2023-03-26T06:17:30;7.40;1.00
13673;DHT22;6909;52.202;9.876;2023-03-26T06:19:57;7.40;1.00
13673;DHT22;6909;52.202;9.876;2023-03-26T06:22:24;7.50;1.00
13673;DHT22;6909;52.202;9.876;2023-03-26T06:24:52;7.50;1.00
13673;DHT22;6909;52.202;9.876;2023-03-26T06:27:18;7.60;1.00
13673;DHT22;6909;52.202;9.876;2023-03-26T06:29:45;7.70;99.90
13673;DHT22;6909;52.202;9.876;2023-03-26T06:32:12;7.80;47.50
13673;DHT22;6909;52.202;9.876;2023-03-26T06:34:39;7.90;8.30
13673;DHT22;6909;52.202;9.876;2023-03-26T06:37:06;7.90;1.00
13673;DHT22;6909;52.202;9.876;2023-03-26T06:39:32;7.90;1.00
13673;DHT22;6909;52.202;9.876;2023-03-26T06:42:00;7.90;1.00
13673;DHT22;6909;52.202;9.876;2023-03-26T06:44:27;7.80;1.00
13673;DHT22;6909;52.202;9.876;2023-03-26T06:46:54;7.80;1.00
13673;DHT22;6909;52.202;9.876;2023-03-26T06:49:20;7.80;1.00
13673;DHT22;6909;52.202;9.876;2023-03-26T06:51:47;7.80;1.00
13673;DHT22;6909;52.202;9.876;2023-03-26T06:54:14;7.80;1.00
13673;DHT22;6909;52.202;9.876;2023-03-26T06:56:41;7.90;1.00
13673;DHT22;6909;52.202;9.876;2023-03-26T06:59:09;7.90;1.00
13673;DHT22;6909;52.202;9.876;2023-03-26T07:01:35;7.80;99.90
13673;DHT22;6909;52.202;9.876;2023-03-26T07:04:03;7.80;1.00
13673;DHT22;6909;52.202;9.876;2023-03-26T07:06:29;7.80;1.00
13673;DHT22;6909;52.202;9.876;2023-03-26T07:08:57;7.90;1.00
13673;DHT22;6909;52.202;9.876;2023-03-26T07:11:23;7.80;1.00
13673;DHT22;6909;52.202;9.876;2023-03-26T07:13:51;7.90;1.00
13673;DHT22;6909;52.202;9.876;2023-03-26T07:16:21;8.00;1.00
13673;DHT22;6909;52.202;9.876;2023-03-26T07:18:48;8.20;1.00
13673;DHT22;6909;52.202;9.876;2023-03-26T07:21:15;8.30;1.00
13673;DHT22;6909;52.202;9.876;2023-03-26T07:23:44;8.30;1.00
13673;DHT22;6909;52.202;9.876;2023-03-26T07:26:21;8.40;99.90
13673;DHT22;6909;52.202;9.876;2023-03-26T07:28:54;8.50;99.90
13673;DHT22;6909;52.202;9.876;2023-03-26T07:31:28;8.60;99.90
13673;DHT22;6909;52.202;9.876;2023-03-26T07:34:04;8.60;99.90
13673;DHT22;6909;52.202;9.876;2023-03-26T07:36:36;8.70;1.00
13673;DHT22;6909;52.202;9.876;2023-03-26T07:39:13;8.70;1.00
13673;DHT22;6909;52.202;9.876;2023-03-26T07:41:46;8.90;1.00
13673;DHT22;6909;52.202;9.876;2023-03-26T07:44:34;9.40;1.00
13673;DHT22;6909;52.202;9.876;2023-03-26T07:47:14;9.90;1.00
13673;DHT22;6909;52.202;9.876;2023-03-26T07:49:43;10.10;1.00
13673;DHT22;6909;52.202;9.876;2023-03-26T07:52:10;10.00;1.00
13673;DHT22;6909;52.202;9.876;2023-03-26T07:54:37;9.90;99.90
13673;DHT22;6909;52.202;9.876;2023-03-26T07:57:14;10.40;99.90
13673;DHT22;6909;52.202;9.876;2023-03-26T07:59:46;10.40;84.40
13673;DHT22;6909;52.202;9.876;2023-03-26T08:02:34;10.40;1.00
13673;DHT22;6909;52.202;9.876;2023-03-26T08:05:18;10.80;1.00
13673;DHT22;6909;52.202;9.876;2023-03-26T08:08:02;11.20;1.00
13673;DHT22;6909;52.202;9.876;2023-03-26T08:10:35;10.80;1.00
13673;DHT22;6909;52.202;9.876;2023-03-26T08:13:14;10.60;99.90
13673;DHT22;6909;52.202;9.876;2023-03-26T08:15:47;10.60;99.90
13673;DHT22;6909;52.202;9.876;2023-03-26T08:18:30;10.70;99.90
13673;DHT22;6909;52.202;9.876;2023-03-26T08:21:05;11.00;99.90
13673;DHT22;6909;52.202;9.876;2023-03-26T08:23:39;10.70;1.00
13673;DHT22;6909;52.202;9.876;2023-03-26T08:26:15;10.40;1.00
13673;DHT22;6909;52.202;9.876;2023-03-26T08:28:55;10.20;1.00
13673;DHT22;6909;52.202;9.876;2023-03-26T08:31:29;10.10;1.00
13673;DHT22;6909;52.202;9.876;2023-03-26T08:33:59;9.90;1.00
13673;DHT22;6909;52.202;9.876;2023-03-26T08:36:26;10.10;1.00
13673;DHT22;6909;52.202;9.876;2023-03-26T08:38:54;10.00;1.00
13673;DHT22;6909;52.202;9.876;2023-03-26T08:41:53;9.90;1.00
13673;DHT22;6909;52.202;9.876;2023-03-26T08:44:59;10.10;1.00
13673;DHT22;6909;52.202;9.876;2023-03-26T08:47:59;9.90;1.00
13673;DHT22;6909;52.202;9.876;2023-03-26T08:51:00;9.90;99.90
13673;DHT22;6909;52.202;9.876;2023-03-26T08:53:58;10.10;99.90
13673;DHT22;6909;52.202;9.876;2023-03-26T08:56:33;10.10;99.90
13673;DHT22;6909;52.202;9.876;2023-03-26T08:59:18;10.40;99.90
13673;DHT22;6909;52.202;9.876;2023-03-26T09:02:18;10.50;99.90
13673;DHT22;6909;52.202;9.876;2023-03-26T09:05:24;10.70;99.90
13673;DHT22;6909;52.202;9.876;2023-03-26T09:17:38;12.60;99.90
13673;DHT22;6909;52.202;9.876;2023-03-26T09:20:43;12.60;1.00
13673;DHT22;6909;52.202;9.876;2023-03-26T09:23:38;12.30;1.00
13673;DHT22;6909;52.202;9.876;2023-03-26T09:26:32;12.40;1.00
13673;DHT22;6909;52.202;9.876;2023-03-26T09:32:26;12.70;1.00
13673;DHT22;6909;52.202;9.876;2023-03-26T09:35:10;13.00;1.00
13673;DHT22;6909;52.202;9.876;2023-03-26T09:37:53;13.20;1.00
13673;DHT22;6909;52.202;9.876;2023-03-26T09:40:31;13.60;1.00
13673;DHT22;6909;52.202;9.876;2023-03-26T09:43:38;13.80;99.90
13673;DHT22;6909;52.202;9.876;2023-03-26T09:46:17;13.90;99.90
13673;DHT22;6909;52.202;9.876;2023-03-26T09:48:54;13.70;99.90
13673;DHT22;6909;52.202;9.876;2023-03-26T09:51:48;12.90;9.50
13673;DHT22;6909;52.202;9.876;2023-03-26T09:57:36;12.50;1.00
13673;DHT22;6909;52.202;9.876;2023-03-26T10:00:20;12.10;1.00
13673;DHT22;6909;52.202;9.876;2023-03-26T10:02:58;11.90;1.00
13673;DHT22;6909;52.202;9.876;2023-03-26T10:05:44;11.90;1.00
13673;DHT22;6909;52.202;9.876;2023-03-26T10:08:26;11.80;1.00
13673;DHT22;6909;52.202;9.876;2023-03-26T10:10:56;11.50;1.00
13673;DHT22;6909;52.202;9.876;2023-03-26T10:13:32;11.80;1.00
13673;DHT22;6909;52.202;9.876;2023-03-26T10:16:18;12.10;1.00
13673;DHT22;6909;52.202;9.876;2023-03-26T10:18:55;11.80;1.00
13673;DHT22;6909;52.202;9.876;2023-03-26T10:21:33;12.20;1.00
13673;DHT22;6909;52.202;9.876;2023-03-26T10:24:10;12.80;1.00
13673;DHT22;6909;52.202;9.876;2023-03-26T10:27:03;13.10;1.00
13673;DHT22;6909;52.202;9.876;2023-03-26T10:29:58;13.40;1.00
13673;DHT22;6909;52.202;9.876;2023-03-26T10:32:32;13.70;1.00
13673;DHT22;6909;52.202;9.876;2023-03-26T10:35:10;13.60;1.00
13673;DHT22;6909;52.202;9.876;2023-03-26T10:37:54;13.80;1.00
13673;DHT22;6909;52.202;9.876;2023-03-26T10:40:31;13.90;1.00
13673;DHT22;6909;52.202;9.876;2023-03-26T10:43:25;14.10;1.00
13673;DHT22;6909;52.202;9.876;2023-03-26T10:51:57;14.00;99.90
13673;DHT22;6909;52.202;9.876;2023-03-26T10:54:40;14.00;99.90
13673;DHT22;6909;52.202;9.876;2023-03-26T10:57:20;14.10;99.90
13673;DHT22;6909;52.202;9.876;2023-03-26T10:59:51;14.00;99.90
13673;DHT22;6909;52.202;9.876;2023-03-26T11:02:26;14.10;99.90
13673;DHT22;6909;52.202;9.876;2023-03-26T11:05:02;14.30;99.90
13673;DHT22;6909;52.202;9.876;2023-03-26T11:07:47;14.00;67.20
13673;DHT22;6909;52.202;9.876;2023-03-26T11:10:19;13.60;1.00
13673;DHT22;6909;52.202;9.876;2023-03-26T11:12:55;13.70;1.00
13673;DHT22;6909;52.202;9.876;2023-03-26T11:15:27;13.60;1.00
13673;DHT22;6909;52.202;9.876;2023-03-26T11:18:03;13.60;1.00
13673;DHT22;6909;52.202;9.876;2023-03-26T11:20:36;13.50;1.00
13673;DHT22;6909;52.202;9.876;2023-03-26T11:23:16;13.50;1.00
13673;DHT22;6909;52.202;9.876;2023-03-26T11:25:56;13.40;1.00
13673;DHT22;6909;52.202;9.876;2023-03-26T11:28:41;13.50;1.00
13673;DHT22;6909;52.202;9.876;2023-03-26T11:31:15;13.10;1.00
13673;DHT22;6909;52.202;9.876;2023-03-26T11:33:50;13.00;1.00
13673;DHT22;6909;52.202;9.876;2023-03-26T11:36:21;12.40;1.00
13673;DHT22;6909;52.202;9.876;2023-03-26T11:38:50;12.10;1.00
13673;DHT22;6909;52.202;9.876;2023-03-26T11:41:19;11.70;1.00
13673;DHT22;6909;52.202;9.876;2023-03-26T11:43:49;12.00;1.00
13673;DHT22;6909;52.202;9.876;2023-03-26T11:46:19;12.10;1.00
13673;DHT22;6909;52.202;9.876;2023-03-26T11:48:51;12.40;1.00
13673;DHT22;6909;52.202;9.876;2023-03-26T11:51:22;12.50;1.00
13673;DHT22;6909;52.202;9.876;2023-03-26T11:53:50;12.10;1.00
13673;DHT22;6909;52.202;9.876;2023-03-26T11:56:23;11.60;1.00
13673;DHT22;6909;52.202;9.876;2023-03-26T11:58:54;11.40;1.00
13673;DHT22;6909;52.202;9.876;2023-03-26T12:01:26;11.50;1.00
13673;DHT22;6909;52.202;9.876;2023-03-26T12:04:04;11.80;1.00
13673;DHT22;6909;52.202;9.876;2023-03-26T12:06:32;11.60;1.00
13673;DHT22;6909;52.202;9.876;2023-03-26T12:08:59;11.60;1.00
13673;DHT22;6909;52.202;9.876;2023-03-26T12:11:28;11.70;1.00
13673;DHT22;6909;52.202;9.876;2023-03-26T12:14:01;11.50;1.00
13673;DHT22;6909;52.202;9.876;2023-03-26T12:16:29;11.60;1.00
13673;DHT22;6909;52.202;9.876;2023-03-26T12:19:03;11.80;1.00
13673;DHT22;6909;52.202;9.876;2023-03-26T12:21:43;11.90;1.00
13673;DHT22;6909;52.202;9.876;2023-03-26T12:24:24;12.00;1.00
13673;DHT22;6909;52.202;9.876;2023-03-26T12:26:55;12.10;1.00
13673;DHT22;6909;52.202;9.876;2023-03-26T12:29:22;11.70;1.00
13673;DHT22;6909;52.202;9.876;2023-03-26T12:31:53;11.80;1.00
13673;DHT22;6909;52.202;9.876;2023-03-26T12:34:22;11.90;1.00
13673;DHT22;6909;52.202;9.876;2023-03-26T12:36:56;11.60;1.00
13673;DHT22;6909;52.202;9.876;2023-03-26T12:39:30;11.60;1.00
13673;DHT22;6909;52.202;9.876;2023-03-26T12:41:58;11.70;1.00
13673;DHT22;6909;52.202;9.876;2023-03-26T12:44:28;11.60;1.00
13673;DHT22;6909;52.202;9.876;2023-03-26T12:47:13;11.70;1.00
13673;DHT22;6909;52.202;9.876;2023-03-26T12:49:42;11.80;1.00
13673;DHT22;6909;52.202;9.876;2023-03-26T12:55:09;12.20;1.00
13673;DHT22;6909;52.202;9.876;2023-03-26T12:57:46;12.10;1.00
13673;DHT22;6909;52.202;9.876;2023-03-26T13:00:26;12.30;1.00
13673;DHT22;6909;52.202;9.876;2023-03-26T13:05:55;12.20;1.00
13673;DHT22;6909;52.202;9.876;2023-03-26T13:11:29;12.30;1.00
13673;DHT22;6909;52.202;9.876;2023-03-26T13:14:18;12.30;1.00
13673;DHT22;6909;52.202;9.876;2023-03-26T13:16:52;12.40;1.00
13673;DHT22;6909;52.202;9.876;2023-03-26T13:19:26;12.30;1.00
13673;DHT22;6909;52.202;9.876;2023-03-26T13:22:06;12.30;1.00
13673;DHT22;6909;52.202;9.876;2023-03-26T13:24:44;12.10;1.00
13673;DHT22;6909;52.202;9.876;2023-03-26T13:27:21;11.70;1.00
13673;DHT22;6909;52.202;9.876;2023-03-26T13:29:57;11.70;1.00
13673;DHT22;6909;52.202;9.876;2023-03-26T13:32:36;11.80;1.00
13673;DHT22;6909;52.202;9.876;2023-03-26T13:35:23;11.60;1.00
13673;DHT22;6909;52.202;9.876;2023-03-26T13:37:58;11.50;1.00
13673;DHT22;6909;52.202;9.876;2023-03-26T13:40:34;11.30;1.00
13673;DHT22;6909;52.202;9.876;2023-03-26T13:43:18;11.20;1.00
13673;DHT22;6909;52.202;9.876;2023-03-26T13:45:54;11.20;1.00
13673;DHT22;6909;52.202;9.876;2023-03-26T13:48:24;10.90;1.00
13673;DHT22;6909;52.202;9.876;2023-03-26T13:50:58;10.60;1.00
13673;DHT22;6909;52.202;9.876;2023-03-26T13:53:33;10.50;1.00
13673;DHT22;6909;52.202;9.876;2023-03-26T13:56:01;10.60;1.00
13673;DHT22;6909;52.202;9.876;2023-03-26T13:58:33;10.70;1.00
13673;DHT22;6909;52.202;9.876;2023-03-26T14:01:05;10.40;1.00
13673;DHT22;6909;52.202;9.876;2023-03-26T14:03:40;10.20;1.00
13673;DHT22;6909;52.202;9.876;2023-03-26T14:06:13;9.90;1.00
13673;DHT22;6909;52.202;9.876;2023-03-26T14:08:46;9.80;99.90
13673;DHT22;6909;52.202;9.876;2023-03-26T14:11:18;9.70;99.90
13673;DHT22;6909;52.202;9.876;2023-03-26T14:13:50;9.60;99.90
13673;DHT22;6909;52.202;9.876;2023-03-26T14:16:20;9.50;99.90
13673;DHT22;6909;52.202;9.876;2023-03-26T14:18:53;9.50;99.90
13673;DHT22;6909;52.202;9.876;2023-03-26T14:21:44;9.40;99.90
13673;DHT22;6909;52.202;9.876;2023-03-26T16:32:34;8.00;1.00
13673;DHT22;6909;52.202;9.876;2023-03-26T16:35:02;7.90;1.00
13673;DHT22;6909;52.202;9.876;2023-03-26T16:37:39;8.00;1.00
13673;DHT22;6909;52.202;9.876;2023-03-26T16:43:22;8.00;1.00
13673;DHT22;6909;52.202;9.876;2023-03-26T16:45:58;8.00;1.00
13673;DHT22;6909;52.202;9.876;2023-03-26T16:48:33;8.00;1.00
13673;DHT22;6909;52.202;9.876;2023-03-26T16:51:07;8.00;99.90
13673;DHT22;6909;52.202;9.876;2023-03-26T16:53:44;8.00;99.90
13673;DHT22;6909;52.202;9.876;2023-03-26T16:56:15;8.10;99.90
13673;DHT22;6909;52.202;9.876;2023-03-26T16:58:54;8.10;99.90
13673;DHT22;6909;52.202;9.876;2023-03-26T17:01:42;8.00;99.90
13673;DHT22;6909;52.202;9.876;2023-03-26T17:04:14;8.00;73.90
13673;DHT22;6909;52.202;9.876;2023-03-26T17:07:02;8.00;21.60
13673;DHT22;6909;52.202;9.876;2023-03-26T17:09:44;8.00;11.60
13673;DHT22;6909;52.202;9.876;2023-03-26T17:12:22;8.00;1.00
13673;DHT22;6909;52.202;9.876;2023-03-26T17:15:10;8.00;1.00
13673;DHT22;6909;52.202;9.876;2023-03-26T17:17:50;8.00;1.00
13673;DHT22;6909;52.202;9.876;2023-03-26T17:20:26;7.90;1.00
13673;DHT22;6909;52.202;9.876;2023-03-26T17:23:07;7.90;1.00
13673;DHT22;6909;52.202;9.876;2023-03-26T17:25:41;7.90;1.00
13673;DHT22;6909;52.202;9.876;2023-03-26T17:28:21;7.90;1.00
13673;DHT22;6909;52.202;9.876;2023-03-26T17:31:01;7.90;1.00
13673;DHT22;6909;52.202;9.876;2023-03-26T17:33:31;7.90;1.00
13673;DHT22;6909;52.202;9.876;2023-03-26T17:36:20;7.90;1.00
13673;DHT22;6909;52.202;9.876;2023-03-26T17:41:54;7.80;1.00
13673;DHT22;6909;52.202;9.876;2023-03-26T17:44:45;7.80;1.00
13673;DHT22;6909;52.202;9.876;2023-03-26T17:47:37;7.80;1.00
13673;DHT22;6909;52.202;9.876;2023-03-26T17:50:10;7.70;1.00
13673;DHT22;6909;52.202;9.876;2023-03-26T17:52:54;7.70;1.00
13673;DHT22;6909;52.202;9.876;2023-03-26T17:55:24;7.70;1.00
13673;DHT22;6909;52.202;9.876;2023-03-26T17:57:57;7.60;1.00
13673;DHT22;6909;52.202;9.876;2023-03-26T18:00:26;7.60;1.00
13673;DHT22;6909;52.202;9.876;2023-03-26T18:02:56;7.60;1.00
13673;DHT22;6909;52.202;9.876;2023-03-26T18:05:26;7.60;99.90
13673;DHT22;6909;52.202;9.876;2023-03-26T18:08:15;7.50;99.90
13673;DHT22;6909;52.202;9.876;2023-03-26T18:11:16;7.50;99.90
13673;DHT22;6909;52.202;9.876;2023-03-26T18:16:36;7.50;99.90
13673;DHT22;6909;52.202;9.876;2023-03-26T18:19:09;7.50;99.90
13673;DHT22;6909;52.202;9.876;2023-03-26T18:21:43;7.50;99.90
13673;DHT22;6909;52.202;9.876;2023-03-26T18:24:16;7.40;99.90
13673;DHT22;6909;52.202;9.876;2023-03-26T18:26:45;7.40;99.90
13673;DHT22;6909;52.202;9.876;2023-03-26T18:29:19;7.30;98.60
13673;DHT22;6909;52.202;9.876;2023-03-26T18:31:49;7.30;74.80
13673;DHT22;6909;52.202;9.876;2023-03-26T18:34:18;7.20;75.10
13673;DHT22;6909;52.202;9.876;2023-03-26T18:36:46;7.20;12.80
13673;DHT22;6909;52.202;9.876;2023-03-26T18:39:14;7.20;1.00
13673;DHT22;6909;52.202;9.876;2023-03-26T18:41:41;7.20;1.00
13673;DHT22;6909;52.202;9.876;2023-03-26T18:44:13;7.20;1.00
13673;DHT22;6909;52.202;9.876;2023-03-26T18:46:41;7.20;1.00
13673;DHT22;6909;52.202;9.876;2023-03-26T18:49:10;7.20;1.00
13673;DHT22;6909;52.202;9.876;2023-03-26T18:51:38;7.20;1.00
13673;DHT22;6909;52.202;9.876;2023-03-26T18:54:06;7.20;1.00
13673;DHT22;6909;52.202;9.876;2023-03-26T18:56:37;7.10;1.00
13673;DHT22;6909;52.202;9.876;2023-03-26T18:59:05;7.10;1.00
13673;DHT22;6909;52.202;9.876;2023-03-26T19:01:34;7.10;1.00
13673;DHT22;6909;52.202;9.876;2023-03-26T19:04:05;7.00;1.00
13673;DHT22;6909;52.202;9.876;2023-03-26T19:06:33;7.10;1.00
13673;DHT22;6909;52.202;9.876;2023-03-26T19:09:05;7.00;1.00
13673;DHT22;6909;52.202;9.876;2023-03-26T19:11:37;7.00;1.00
13673;DHT22;6909;52.202;9.876;2023-03-26T19:14:07;7.00;1.00
13673;DHT22;6909;52.202;9.876;2023-03-26T19:16:39;6.90;1.00
13673;DHT22;6909;52.202;9.876;2023-03-26T19:19:14;6.90;1.00
13673;DHT22;6909;52.202;9.876;2023-03-26T19:21:41;6.90;1.00
13673;DHT22;6909;52.202;9.876;2023-03-26T19:24:09;6.80;1.00
13673;DHT22;6909;52.202;9.876;2023-03-26T19:26:41;6.70;1.00
13673;DHT22;6909;52.202;9.876;2023-03-26T19:29:11;6.70;1.00
13673;DHT22;6909;52.202;9.876;2023-03-26T19:31:39;6.70;1.00